This is the latest recevied weather packets stored in our database for station/object N8JE. If no packets are shown the sender has not sent any weather packets the latest 10 day(s).
| Time | Temp. | Humidity | Pressure | Rain* | Wind** | Luminosity | Snow |
|---|---|---|---|---|---|---|---|
| 1777068005 | 26.67° C | 47% | 1004.5 hPa | 0 mm | - | - | - |
| 1777065305 | 27.22° C | 45% | 1004.7 hPa | 0 mm | - | - | - |
| 1777061105 | 27.78° C | 45% | 1005.3 hPa | 0 mm | - | - | - |
| 1777059904 | 27.78° C | 45% | 1005.7 hPa | 0 mm | - | - | - |
| 1777058105 | 26.67° C | 48% | 1006.1 hPa | 0 mm | - | - | - |
| 1777055705 | 27.22° C | 47% | 1006.5 hPa | 0 mm | - | - | - |
| 1777052405 | 26.67° C | 49% | 1007 hPa | 0 mm | - | - | - |
| 1777049705 | 26.11° C | 48% | 1007.5 hPa | 0 mm | - | - | - |
| 1777047905 | 25.56° C | 50% | 1007.9 hPa | 0 mm | - | - | - |
| 1777047606 | 26.11° C | 50% | 1007.8 hPa | 0 mm | - | - | - |
| 1777044905 | 24.44° C | 52% | 1008.2 hPa | 0 mm | - | - | - |
| 1777040405 | 22.78° C | 56% | 1008.4 hPa | 0 mm | - | - | - |
| 1777040104 | 22.78° C | 56% | 1008.4 hPa | 0 mm | - | - | - |
| 1777038605 | 21.67° C | 59% | 1008.5 hPa | 0 mm | - | - | - |
| 1777036804 | 20.56° C | 61% | 1008.9 hPa | 0 mm | - | - | - |
| 1777034704 | 18.89° C | 65% | 1009.1 hPa | 0 mm | - | - | - |
| 1777033804 | 17.78° C | 67% | 1009.2 hPa | 0 mm | - | - | - |
| 1777032904 | 17.22° C | 69% | 1009.6 hPa | 0 mm | - | - | - |
| 1777032304 | 17.22° C | 69% | 1009.6 hPa | 0 mm | - | - | - |
| 1777032004 | 17.22° C | 69% | 1009.5 hPa | 0 mm | - | - | - |
| 1777029004 | 13.89° C | 77% | 1009.6 hPa | 0 mm | - | - | - |
| 1777028704 | 13.33° C | 78% | 1009.6 hPa | 0 mm | - | - | - |
| 1777028403 | 13.33° C | 78% | 1009.6 hPa | 0 mm | - | - | - |
| 1777028104 | 13.33° C | 78% | 1009.6 hPa | 0 mm | - | - | - |
| 1777023007 | 13.33° C | 78% | 1009.7 hPa | 0 mm | - | - | - |
* Rain latest hour (hover to see other rain measurements)
** Current wind speed in m/s (hover to see current wind gust speed)